« 定点 富山空港 2020/7/3 fri | トップページ | 定点 富山空港 2020/7/11 sat »

2020/07/08

警報 富山空港 2020/7/8 wed

7月6日11時に発令された大雨警報が続いていました。マスコミでは九州での被害を伝えています。小生の判断基準は、舟橋村に警報が出るかを見てるので、河原偵察に出かけました。

RJNT 072319Z 31003KT 250V350 6000 -SHRA BR FEW002 BKN015 BKN025 20/20 Q1004 RMK 1ST002 5SC015 6SC025 A2966 BR SW

20200708_rjnt_00river

RW02エンド 轟轟と泥水が流れています。

20200708_rjnt_01rjnt

実は空港に着くまで欠航とは、つゆ知らず。

20200708_rjnt_02rjnt

欠航理由が「富山空港の西に位置する神通川の水位が危険水域に達したため、欠航しています。」 なるほど。

20200708_rjnt_03rjnt

でも、この中洲 なかなか無くなりません。

20200708_rjnt_04rjnt

撤去班 出動準備

20200708_rjnt_05rjnt

場周柵と進入灯等の洪水対策を行います。

20200708_rjnt_06rjnt

航空局はLOCを停止したのかな。

RJNT 080000Z VRB02KT 9999 -SHRA FEW002 BKN045 BKN080 21/21 Q1004

20200708_rjnt_07river

対岸を見ると、のり面まで1mぐらい。

20200708_rjnt_08river

RW02エンド 柵が倒され・・一部不完全ですが

20200708_rjnt_09ja6512

JA6512 AS350B3 AKF

天候が回復してきたので、朝日さんは飛ぶのかと思いきや・・ 

20200708_rjnt_10ja6512

滑走路閉鎖で飛んじゃダメと 北電の災害対応なら飛ばしてあげても・・

20200708_rjnt_11jnt

RW20エンド 

20200708_rjnt_12jnt

こちらも柵が倒されています。

20200708_rjnt_13jnt

烏さんが、「おまえら、何しとんがよ」と、眺めています。

RJNT 080100Z 12004KT 020V170 9999 -SHRA FEW003 SCT060 BKN090 24/22 Q1005

20200708_rjnt_14jnt

進入灯の倒伏 作業が始まりました。

20200708_rjnt_15jnt

背の低いのは、人力のみで

20200708_rjnt_16rjnt

一面の草原に

20200708_rjnt_17rjnt

高い塔になっている灯火も、クレーンで支えながら倒します。

20200708_rjnt_18rjnt

基部のボルトを外している上で、烏さんが

20200708_rjnt_19rjnt

順次引き倒していきます。大変な作業やねぇ。

20200708_rjnt_20river

水位は橋すれすれ。でも、投網投げの人が何人も見えてます。

20200708_rjnt_21ja139t

JA139T AW139 富山県警察

警察さんは、優先

###

 

###

RJNT 080200Z 22003KT 180V260 9999 -SHRA FEW005 BKN060 BKN090 25/21 Q1005

20200708_rjnt_22rjnt

この時間帯が一番水位が高かったようです。

20200708_rjnt_23rjnt

小生の食料を狙ってたトンビさんが、烏さんと睨めっこ。

RJNT 080300Z 25003KT 200V300 9999 -SHRA FEW010 SCT015 BKN045 26/22 Q1005

20200708_rjnt_24river

水量が下がってきた様なので、場周を廻ってみました。

20200708_rjnt_25river

ずる剥けの大木がガンガン流れていました。

20200708_rjnt_26river

この場所で、水面は1m下ぐらい

20200708_rjnt_27river

この中洲はつおぃ

20200708_rjnt_28river

流れ着いた倒木で、堰が出来てます。

20200708_rjnt_29river

ここ、普段は川底まで5mぐらいあるところ。

20200708_rjnt_30river

黒い線になっているところが最大のところ。下がってるね。

20200708_rjnt_31river

ところどころ、川底の地形により、こんなに波打つところも。

20200708_rjnt_40

当初319は調査中でしたが、警報も解除されたので、無事就航しました。

20200708_rjnt_41

滑走路等クローズのNOTAM 今晩は、進入灯は回復しません。

20200708_rjnt_42

RW02エンド至近にある観測点の遷移。12時ぐらいがピークでした。

 

|

« 定点 富山空港 2020/7/3 fri | トップページ | 定点 富山空港 2020/7/11 sat »

富山空港」カテゴリの記事

コメント

コメントを書く



(ウェブ上には掲載しません)


コメントは記事投稿者が公開するまで表示されません。



« 定点 富山空港 2020/7/3 fri | トップページ | 定点 富山空港 2020/7/11 sat »